WetterOnline ( http://www.wetteronline.de )

Wetter aktuell Daun

Aktuelles Wetter: Nürburg-Barweiler (488m)

6-stündlich | Neueste Meldungen
Ortszeit Temperatur Wetter
Mo, 18.06. 2:00 12.3° C bedeckt
So, 17.06. 20:00 14.2° C bedeckt
So, 17.06. 14:00 17.6° C bewölkt
So, 17.06. 8:00 13.2° C bewölkt
So, 17.06. 2:00 12.8° C bewölkt
Sa, 16.06. 20:00 20.0° C wolkig
Sa, 16.06. 14:00 21.0° C wolkig
Sa, 16.06. 8:00 13.8° C bewölkt
Ortszeit Temperatur Wetter
Mo, 18.06. 5:30 12.1° C bedeckt
Mo, 18.06. 5:20 12.1° C bedeckt
Mo, 18.06. 5:10 12.2° C bedeckt
Mo, 18.06. 5:00 12.2° C bedeckt
Mo, 18.06. 4:50 12.2° C bedeckt
Mo, 18.06. 4:40 12.3° C bedeckt
Mo, 18.06. 4:30 12.4° C bedeckt
Mo, 18.06. 4:00 12.5° C bedeckt
Mo, 18.06. 3:30 12.5° C bedeckt
Mo, 18.06. 3:00 12.6° C bedeckt
Mo, 18.06. 2:30 12.3° C bedeckt
Ortszeit Relative Feuchte Sichtweite
Mo, 18.06. 2:00 79% 30 km
So, 17.06. 20:00 67% -
So, 17.06. 14:00 63% 21 km
So, 17.06. 8:00 85% 16 km
So, 17.06. 2:00 91% -
Sa, 16.06. 20:00 61% 35 km
Sa, 16.06. 14:00 47% 30 km
Sa, 16.06. 8:00 94% 9 km
Ortszeit Relative Feuchte Sichtweite
Mo, 18.06. 5:30 82% 26 km
Mo, 18.06. 5:20 82% -
Mo, 18.06. 5:10 81% -
Mo, 18.06. 5:00 80% 27 km
Mo, 18.06. 4:50 80% -
Mo, 18.06. 4:40 80% -
Mo, 18.06. 4:30 79% 27 km
Mo, 18.06. 4:00 78% 27 km
Mo, 18.06. 3:30 79% 25 km
Mo, 18.06. 3:00 78% 27 km
Mo, 18.06. 2:30 79% 28 km
Ortszeit Niederschlagsmenge Niederschlagsart
Mo, 18.06. 2:00 0.0 l/m2 in 6 Std. -
So, 17.06. 20:00 0.1 l/m2 in 12 Std. -
So, 17.06. 14:00 0.0 l/m2 in 6 Std. -
So, 17.06. 8:00 8 l/m2 in 12 Std. -
So, 17.06. 2:00 8 l/m2 in 6 Std. -
Sa, 16.06. 20:00 0.0 l/m2 in 12 Std. -
Sa, 16.06. 14:00 0.0 l/m2 in 6 Std. -
Sa, 16.06. 8:00 0.0 l/m2 in 12 Std. -
Ortszeit Niederschlagsmenge Niederschlagsart
Mo, 18.06. 5:30 0.0 l/m2 in 1 Std. -
Mo, 18.06. 5:20 keine Meldung -
Mo, 18.06. 5:10 keine Meldung -
Mo, 18.06. 5:00 0.0 l/m2 in 1 Std. -
Mo, 18.06. 4:50 keine Meldung -
Mo, 18.06. 4:40 keine Meldung -
Mo, 18.06. 4:30 0.0 l/m2 in 1 Std. -
Mo, 18.06. 4:00 0.0 l/m2 in 1 Std. -
Mo, 18.06. 3:30 0.0 l/m2 in 1 Std. -
Mo, 18.06. 3:00 0.0 l/m2 in 1 Std. -
Mo, 18.06. 2:30 0.0 l/m2 in 1 Std. -
Ortszeit Stärke Spitze Richtung
km/h Bft. km/h Grad Sektor
Mo, 18.06. 2:00 7 2 19 210° SW
So, 17.06. 20:00 14 3 32 270° W
So, 17.06. 14:00 13 3 33 240° SW
So, 17.06. 8:00 6 1 9 210° SW
So, 17.06. 2:00 6 1 26 260° W
Sa, 16.06. 20:00 11 2 24 220° SW
Sa, 16.06. 14:00 11 2 18 230° SW
Sa, 16.06. 8:00 0 0 11 - -
Ortszeit Stärke Spitze Richtung
km/h Bft. km/h Grad Sektor
Mo, 18.06. 5:30 9 2 13 190° S
Mo, 18.06. 5:20 9 2 - 190° S
Mo, 18.06. 5:10 9 2 - 180° S
Mo, 18.06. 5:00 9 2 13 190° S
Mo, 18.06. 4:50 9 2 - 190° S
Mo, 18.06. 4:40 9 2 - 190° S
Mo, 18.06. 4:30 9 2 13 180° S
Mo, 18.06. 4:00 9 2 13 190° S
Mo, 18.06. 3:30 7 2 14 190° S
Mo, 18.06. 3:00 7 2 11 200° S
Mo, 18.06. 2:30 7 2 11 200° S
Ortszeit Untergrenze Bedeckung Gattung
total tief tief mittel hoch
Mo, 18.06. 2:00 1500 m 8/8 8/8 - - -
So, 17.06. 20:00 2400 m 8/8 8/8 - - -
So, 17.06. 14:00 870 m 8/8 7/8 - - -
So, 17.06. 8:00 1500 m 7/8 7/8 - - -
So, 17.06. 2:00 3000 m 7/8 7/8 - - -
Sa, 16.06. 20:00 1320 m 6/8 6/8 - - -
Sa, 16.06. 14:00 1470 m 8/8 1/8 - - -
Sa, 16.06. 8:00 1800 m 8/8 7/8 - - -
Ortszeit Bedeckungsgrad in Achtel und Wolkenuntergrenze
Mo, 18.06. 5:30 3(1020m) 8(2400m) 8(8700m)
Mo, 18.06. 5:20 3(1020m) 8(2400m) 8(8700m)
Mo, 18.06. 5:10 5(1050m) 6(1380m) 8(1500m)
Mo, 18.06. 5:00 1(1020m) 8(1440m)
Mo, 18.06. 4:50 1(1020m) 8(1440m)
Mo, 18.06. 4:40 8(1440m)
Mo, 18.06. 4:30 8(1440m)
Mo, 18.06. 4:00 8(1500m)
Mo, 18.06. 3:30 8(1500m)
Mo, 18.06. 3:00 8(1500m) 8(2100m)
Mo, 18.06. 2:30 8(1500m) 8(2100m)
Ortszeit Luftdruck NN (hPa) Tendenz (hPa in 3 Std.)
Mo, 18.06. 2:00 1022 + 0,6
So, 17.06. 20:00 1020 + 0,9
So, 17.06. 14:00 1017 0,0
So, 17.06. 8:00 1018 + 0,4
So, 17.06. 2:00 1017 + 0,2
Sa, 16.06. 20:00 1014 - 0,2
Sa, 16.06. 14:00 1015 - 0,4
Sa, 16.06. 8:00 1016 0,0
Ortszeit Luftdruck NN (hPa) Tendenz (hPa in 3 Std.)
Mo, 18.06. 5:30 1021 - 0,3
Mo, 18.06. 5:20 1021 keine Meldung
Mo, 18.06. 5:10 1021 keine Meldung
Mo, 18.06. 5:00 1021 - 0,3
Mo, 18.06. 4:50 1021 keine Meldung
Mo, 18.06. 4:40 1021 keine Meldung
Mo, 18.06. 4:30 1021 - 0,1
Mo, 18.06. 4:00 1021 0,0
Mo, 18.06. 3:30 1021 - 0,1
Mo, 18.06. 3:00 1022 + 0,3
Mo, 18.06. 2:30 1022 + 0,3
Ortszeit Schneehöhe (cm)
Mo, 18.06. 2:00 -
So, 17.06. 20:00 -
So, 17.06. 14:00 -
So, 17.06. 8:00 -
So, 17.06. 2:00 -
Sa, 16.06. 20:00 -
Sa, 16.06. 14:00 -
Sa, 16.06. 8:00 -
Ortszeit Schneehöhe (cm)
Mo, 18.06. 5:30 -
Mo, 18.06. 5:20 -
Mo, 18.06. 5:10 -
Mo, 18.06. 5:00 -
Mo, 18.06. 4:50 -
Mo, 18.06. 4:40 -
Mo, 18.06. 4:30 -
Mo, 18.06. 4:00 -
Mo, 18.06. 3:30 -
Mo, 18.06. 3:00 -
Mo, 18.06. 2:30 -
Link zu dieser Seite / Seite empfehlen

Das Wetter in ...